Michael S — WDE9794 — position and weather

sailwx.info

Track history (hours):
 
Tides and Currents Weather Stations Pressure Air Temp Water Temp Dewpoint Dewpoint Depression Visibility Wind Speed Wind Dir Waves Ship Positions

Michael S

Owner: Bisso Tow Boats Inc., New Orleans, LA. More information available from US FCC via Universal Licensing System and Coast Guard Vessel Documentation Center.

Last reported at 2016-May-27 08:29 UTC. Time now 2016-May-27 10:24 UTC.
Position N 29°54' W 089°54'.

Length 33 m; draft 3 m.

Type: Towing. MMSI: 367413700.

Date/timePositionNaut miles runAvg speedWind from/ knotsBaromVisibWave heightAir tempDewpointWater temp
2016-May-27 08:29N 29°54' W 089°54'0 0.0
2016-May-27 06:23N 29°54' W 089°54'0 0.0
2016-May-27 04:26N 29°54' W 089°54'0 0.0
2016-May-27 03:29N 29°54' W 089°54'0 0.0
2016-May-27 02:08N 29°54' W 089°54'0 0.0
2016-May-27 00:20N 29°54' W 089°54'0 0.0
2016-May-26 22:32N 29°54' W 089°54'0 0.0
2016-May-26 21:26N 29°54' W 089°54'3 3.0
2016-May-26 20:33N 29°52' W 089°57'1 0.6
2016-May-26 19:33N 29°53' W 089°57'3 2.9
2016-May-26 18:34N 29°55' W 089°55'5 5.2
2016-May-26 17:31N 29°57' W 090°01'0 0.0
2016-May-26 16:31N 29°57' W 090°01'0 0.0
2016-May-26 15:31N 29°57' W 090°01'0 0.0
2016-May-26 14:31N 29°57' W 090°01'0 0.4
2016-May-26 13:34N 29°57' W 090°01'0 0.4
2016-May-26 12:31N 29°57' W 090°01'0 0.0
2016-May-26 11:31N 29°57' W 090°01'0 0.0
2016-May-26 10:31N 29°57' W 090°01'0 0.0
2016-May-26 09:31N 29°57' W 090°01'2 2.1
2016-May-26 08:33N 29°56' W 089°59'5 4.4
2016-May-26 07:31N 29°52' W 089°56'5 4.7
2016-May-26 06:33N 29°56' W 089°59'2 1.7
2016-May-26 05:31N 29°57' W 090°01'0 0.0
2016-May-26 04:31N 29°57' W 090°01'0 0.0
2016-May-26 03:31N 29°57' W 090°01'0 0.0
2016-May-26 02:31N 29°57' W 090°01'0 0.0
2016-May-26 01:31N 29°57' W 090°01'0 0.0
2016-May-26 00:31N 29°57' W 090°01'0 0.0
2016-May-25 23:31N 29°57' W 090°01'5 4.2
2016-May-25 22:23N 29°55' W 089°56'1 0.9
2016-May-25 21:31N 29°55' W 089°57'0 0.0
2016-May-25 20:31N 29°55' W 089°57'0 0.0
2016-May-25 19:33N 29°55' W 089°57'7 6.8
2016-May-25 18:33N 29°55' W 090°05'1 1.1
2016-May-25 17:33N 29°56' W 090°04'1 0.5
2016-May-25 16:31N 29°56' W 090°03'2 1.6
2016-May-25 15:33N 29°57' W 090°03'2 1.7
2016-May-25 14:33N 29°57' W 090°01'0 0.0
2016-May-25 13:33N 29°57' W 090°01'0 0.0
2016-May-25 12:33N 29°57' W 090°01'0 0.0
2016-May-25 11:33N 29°57' W 090°01'0 0.0
2016-May-25 10:33N 29°57' W 090°01'0 0.0
2016-May-25 09:33N 29°57' W 090°01'0 0.0
2016-May-25 08:33N 29°57' W 090°01'2 1.5
2016-May-25 07:33N 29°56' W 089°60'3 2.7
2016-May-25 06:28N 29°55' W 089°56'0 0.0
2016-May-25 05:29N 29°55' W 089°56'4 4.6
2016-May-25 04:31N 29°57' W 090°01'0 0.0
2016-May-25 03:31N 29°57' W 090°01'0 0.0
2016-May-25 02:31N 29°57' W 090°01'0 0.0
2016-May-25 01:31N 29°57' W 090°01'0 0.0
2016-May-25 00:31N 29°57' W 090°01'0 0.0
2016-May-24 23:31N 29°57' W 090°01'0 0.0
2016-May-24 22:31N 29°57' W 090°01'0 0.0
2016-May-24 21:31N 29°57' W 090°01'0 0.0
2016-May-24 20:31N 29°57' W 090°01'0 0.0
2016-May-24 19:31N 29°57' W 090°01'0 0.0
2016-May-24 18:31N 29°57' W 090°01'0 0.0
2016-May-24 17:31N 29°57' W 090°01'1 1.3
2016-May-24 16:32N 29°56' W 089°60'0 0.2
2016-May-24 15:33N 29°56' W 089°60'6 0.3
2016-May-23 18:33N 29°55' W 090°07'2 0.4
2016-May-23 14:16N 29°55' W 090°05'0 0.0
2016-May-23 13:31N 29°55' W 090°05'0 0.0
2016-May-23 12:28N 29°55' W 090°05'0 0.4
2016-May-23 11:33N 29°55' W 090°05'4 3.8
2016-May-23 10:33N 29°57' W 090°01'0 0.4
2016-May-23 09:32N 29°57' W 090°01'0 0.0
2016-May-23 08:32N 29°57' W 090°01'0 0.0
2016-May-23 07:32N 29°57' W 090°01'0 0.0
2016-May-23 06:32N 29°57' W 090°01'0 0.0
2016-May-23 05:32N 29°57' W 090°01'1 0.1
2016-May-22 09:32N 29°56' W 089°60'1 1.2
2016-May-22 08:33N 29°57' W 090°01'0 0.0
2016-May-22 07:33N 29°57' W 090°01'0 0.0
2016-May-22 06:33N 29°57' W 090°01'0 0.0
2016-May-22 05:33N 29°57' W 090°01'6 0.9
2016-May-21 23:22N 29°55' W 089°55'5 0.5
2016-May-21 13:30N 29°57' W 089°60'0 0.0
2016-May-21 12:33N 29°57' W 089°60'0 0.1
2016-May-21 11:31N 29°56' W 089°60'0 0.4
2016-May-21 10:33N 29°57' W 090°00'1 0.8
2016-May-21 09:31N 29°57' W 090°01'0 0.0
2016-May-21 08:31N 29°57' W 090°01'0 0.0
2016-May-21 07:31N 29°57' W 090°01'0 0.0
2016-May-21 06:31N 29°57' W 090°01'0 0.0
2016-May-21 05:31N 29°57' W 090°01'0 0.0
2016-May-21 04:31N 29°57' W 090°01'0 0.0
2016-May-21 03:31N 29°57' W 090°01'1 0.7
2016-May-21 02:33N 29°57' W 090°02'1 0.6
2016-May-21 01:33N 29°58' W 090°02'2 1.9
2016-May-21 00:32N 29°60' W 090°01'2 2.1
2016-May-20 23:33N 29°58' W 090°02'1 0.7
2016-May-20 22:31N 29°57' W 090°01'0 0.0
2016-May-20 21:33N 29°57' W 090°01'5 4.6
2016-May-20 20:33N 29°55' W 090°06'0 0.2
2016-May-20 19:18N 29°55' W 090°05'4 5.2
2016-May-20 18:33N 29°57' W 090°02'2 1.8
2016-May-20 17:34N 29°57' W 089°60'1 0.2
2016-May-20 15:26N 29°56' W 089°60'0 0.0
2016-May-20 14:33N 29°56' W 089°59'0 0.0
2016-May-20 13:32N 29°56' W 089°59'0 0.0
2016-May-20 12:33N 29°56' W 089°59'0 0.5
2016-May-20 11:32N 29°56' W 089°59'2 2.0
2016-May-20 10:32N 29°57' W 090°01'0 0.0
2016-May-20 09:32N 29°57' W 090°01'0 0.0
2016-May-20 08:32N 29°57' W 090°01'0 0.0
2016-May-20 07:32N 29°57' W 090°01'0 0.0
2016-May-20 06:32N 29°57' W 090°01'0 0.0
2016-May-20 05:32N 29°57' W 090°01'2 1.1
2016-May-20 03:34N 29°56' W 089°59'0 0.4
2016-May-20 02:31N 29°56' W 089°59'6 5.2
2016-May-20 01:28N 29°52' W 089°55'6 6.2
2016-May-20 00:33N 29°49' W 090°00'7 1.8
2016-May-19 20:29N 29°42' W 089°59'1111.6
2016-May-19 19:33N 29°52' W 089°59'5 5.0
2016-May-19 18:31N 29°57' W 090°01'0 0.0
2016-May-19 17:31N 29°57' W 090°01'0 0.0
2016-May-19 16:31N 29°57' W 090°01'0 0.0
2016-May-19 15:31N 29°57' W 090°01'4 4.3
2016-May-19 14:34N 29°55' W 089°57'0 0.3
2016-May-19 13:33N 29°55' W 089°56'2 2.3
2016-May-19 12:29N 29°54' W 089°54'0 0.0
2016-May-19 10:20N 29°54' W 089°54'0 0.0
2016-May-19 09:32N 29°54' W 089°54'0 0.0
2016-May-19 08:14N 29°54' W 089°54'0 0.0
2016-May-19 07:32N 29°54' W 089°54'4 4.2
2016-May-19 06:33N 29°52' W 089°58'4 2.0
2016-May-19 04:31N 29°53' W 089°54'5 5.0
2016-May-19 03:34N 29°56' W 089°59'4 4.0
2016-May-19 02:32N 29°56' W 090°03'4 3.7
2016-May-19 01:33N 29°56' W 089°59'5 4.5
2016-May-19 00:33N 29°52' W 089°56'5 4.7
2016-May-18 23:33N 29°49' W 089°60'7 2.2
2016-May-18 20:25N 29°42' W 089°59'1112.1
2016-May-18 19:33N 29°53' W 089°58'5 4.8
2016-May-18 18:32N 29°57' W 090°01'2 2.0
2016-May-18 17:33N 29°56' W 089°59'3 2.8
2016-May-18 16:32N 29°55' W 089°56'2 2.3
2016-May-18 15:33N 29°56' W 089°59'0 0.2
2016-May-18 14:33N 29°56' W 089°59'0 0.4
2016-May-18 13:31N 29°56' W 089°59'2 1.9
2016-May-18 12:31N 29°57' W 090°01'0 0.0
2016-May-18 11:31N 29°57' W 090°01'0 0.0
2016-May-18 10:31N 29°57' W 090°01'0 0.0
2016-May-18 09:31N 29°57' W 090°01'0 0.0
2016-May-18 08:31N 29°57' W 090°01'0 0.0
2016-May-18 07:28N 29°57' W 090°01'0 0.0
2016-May-18 06:31N 29°57' W 090°01'0 0.0
2016-May-18 05:31N 29°57' W 090°01'0 0.0
2016-May-18 04:31N 29°57' W 090°01'0 0.0
2016-May-18 03:31N 29°57' W 090°01'0 0.0
2016-May-18 02:31N 29°57' W 090°01'0 0.0
2016-May-18 01:31N 29°57' W 090°01'0 0.0
2016-May-18 00:31N 29°57' W 090°01'0 0.0
2016-May-17 23:31N 29°57' W 090°01'0 0.0
2016-May-17 22:31N 29°57' W 090°01'0 0.0
2016-May-17 21:31N 29°57' W 090°01'0 0.0
2016-May-17 20:31N 29°57' W 090°01'0 0.0
2016-May-17 19:31N 29°57' W 090°01'0 0.0
2016-May-17 18:28N 29°57' W 090°01'0 0.0
2016-May-17 17:31N 29°57' W 090°01'0 0.0
2016-May-17 16:31N 29°57' W 090°01'0 0.0
2016-May-17 15:31N 29°57' W 090°01'0 0.0
2016-May-17 14:31N 29°57' W 090°01'0 0.0
2016-May-17 13:31N 29°57' W 090°01'0 0.0
2016-May-17 12:31N 29°57' W 090°01'0 0.0
2016-May-17 11:31N 29°57' W 090°01'0 0.0
2016-May-17 10:31N 29°57' W 090°01'0 0.0
2016-May-17 09:31N 29°57' W 090°01'0 0.0
2016-May-17 08:31N 29°57' W 090°01'  
Track history (hours):
 
Tides and Currents Weather Stations Pressure Air Temp Water Temp Dewpoint Dewpoint Depression Visibility Wind Speed Wind Dir Waves Ship Positions

Michael S

Owner: Bisso Tow Boats Inc., New Orleans, LA. More information available from US FCC via Universal Licensing System and Coast Guard Vessel Documentation Center.

Last reported at 2016-May-27 08:29 UTC. Time now 2016-May-27 10:24 UTC.
Position N 29°54' W 089°54'.

Length 33 m; draft 3 m.

Type: Towing. MMSI: 367413700.

Date/timePositionNaut miles runAvg speedWind from/ knotsBaromVisibWave heightAir tempDewpointWater temp
2016-May-27 08:29N 29°54' W 089°54'0 0.0
2016-May-27 06:23N 29°54' W 089°54'0 0.0
2016-May-27 04:26N 29°54' W 089°54'0 0.0
2016-May-27 03:29N 29°54' W 089°54'0 0.0
2016-May-27 02:08N 29°54' W 089°54'0 0.0
2016-May-27 00:20N 29°54' W 089°54'0 0.0
2016-May-26 22:32N 29°54' W 089°54'0 0.0
2016-May-26 21:26N 29°54' W 089°54'3 3.0
2016-May-26 20:33N 29°52' W 089°57'1 0.6
2016-May-26 19:33N 29°53' W 089°57'3 2.9
2016-May-26 18:34N 29°55' W 089°55'5 5.2
2016-May-26 17:31N 29°57' W 090°01'0 0.0
2016-May-26 16:31N 29°57' W 090°01'0 0.0
2016-May-26 15:31N 29°57' W 090°01'0 0.0
2016-May-26 14:31N 29°57' W 090°01'0 0.4
2016-May-26 13:34N 29°57' W 090°01'0 0.4
2016-May-26 12:31N 29°57' W 090°01'0 0.0
2016-May-26 11:31N 29°57' W 090°01'0 0.0
2016-May-26 10:31N 29°57' W 090°01'0 0.0
2016-May-26 09:31N 29°57' W 090°01'2 2.1
2016-May-26 08:33N 29°56' W 089°59'5 4.4
2016-May-26 07:31N 29°52' W 089°56'5 4.7
2016-May-26 06:33N 29°56' W 089°59'2 1.7
2016-May-26 05:31N 29°57' W 090°01'0 0.0
2016-May-26 04:31N 29°57' W 090°01'0 0.0
2016-May-26 03:31N 29°57' W 090°01'0 0.0
2016-May-26 02:31N 29°57' W 090°01'0 0.0
2016-May-26 01:31N 29°57' W 090°01'0 0.0
2016-May-26 00:31N 29°57' W 090°01'0 0.0
2016-May-25 23:31N 29°57' W 090°01'5 4.2
2016-May-25 22:23N 29°55' W 089°56'1 0.9
2016-May-25 21:31N 29°55' W 089°57'0 0.0
2016-May-25 20:31N 29°55' W 089°57'0 0.0
2016-May-25 19:33N 29°55' W 089°57'7 6.8
2016-May-25 18:33N 29°55' W 090°05'1 1.1
2016-May-25 17:33N 29°56' W 090°04'1 0.5
2016-May-25 16:31N 29°56' W 090°03'2 1.6
2016-May-25 15:33N 29°57' W 090°03'2 1.7
2016-May-25 14:33N 29°57' W 090°01'0 0.0
2016-May-25 13:33N 29°57' W 090°01'0 0.0
2016-May-25 12:33N 29°57' W 090°01'0 0.0
2016-May-25 11:33N 29°57' W 090°01'0 0.0
2016-May-25 10:33N 29°57' W 090°01'0 0.0
2016-May-25 09:33N 29°57' W 090°01'0 0.0
2016-May-25 08:33N 29°57' W 090°01'2 1.5
2016-May-25 07:33N 29°56' W 089°60'3 2.7
2016-May-25 06:28N 29°55' W 089°56'0 0.0
2016-May-25 05:29N 29°55' W 089°56'4 4.6
2016-May-25 04:31N 29°57' W 090°01'0 0.0
2016-May-25 03:31N 29°57' W 090°01'0 0.0
2016-May-25 02:31N 29°57' W 090°01'0 0.0
2016-May-25 01:31N 29°57' W 090°01'0 0.0
2016-May-25 00:31N 29°57' W 090°01'0 0.0
2016-May-24 23:31N 29°57' W 090°01'0 0.0
2016-May-24 22:31N 29°57' W 090°01'0 0.0
2016-May-24 21:31N 29°57' W 090°01'0 0.0
2016-May-24 20:31N 29°57' W 090°01'0 0.0
2016-May-24 19:31N 29°57' W 090°01'0 0.0
2016-May-24 18:31N 29°57' W 090°01'0 0.0
2016-May-24 17:31N 29°57' W 090°01'1 1.3
2016-May-24 16:32N 29°56' W 089°60'0 0.2
2016-May-24 15:33N 29°56' W 089°60'6 0.3
2016-May-23 18:33N 29°55' W 090°07'2 0.4
2016-May-23 14:16N 29°55' W 090°05'0 0.0
2016-May-23 13:31N 29°55' W 090°05'0 0.0
2016-May-23 12:28N 29°55' W 090°05'0 0.4
2016-May-23 11:33N 29°55' W 090°05'4 3.8
2016-May-23 10:33N 29°57' W 090°01'0 0.4
2016-May-23 09:32N 29°57' W 090°01'0 0.0
2016-May-23 08:32N 29°57' W 090°01'0 0.0
2016-May-23 07:32N 29°57' W 090°01'0 0.0
2016-May-23 06:32N 29°57' W 090°01'0 0.0
2016-May-23 05:32N 29°57' W 090°01'1 0.1
2016-May-22 09:32N 29°56' W 089°60'1 1.2
2016-May-22 08:33N 29°57' W 090°01'0 0.0
2016-May-22 07:33N 29°57' W 090°01'0 0.0
2016-May-22 06:33N 29°57' W 090°01'0 0.0
2016-May-22 05:33N 29°57' W 090°01'6 0.9
2016-May-21 23:22N 29°55' W 089°55'5 0.5
2016-May-21 13:30N 29°57' W 089°60'0 0.0
2016-May-21 12:33N 29°57' W 089°60'0 0.1
2016-May-21 11:31N 29°56' W 089°60'0 0.4
2016-May-21 10:33N 29°57' W 090°00'1 0.8
2016-May-21 09:31N 29°57' W 090°01'0 0.0
2016-May-21 08:31N 29°57' W 090°01'0 0.0
2016-May-21 07:31N 29°57' W 090°01'0 0.0
2016-May-21 06:31N 29°57' W 090°01'0 0.0
2016-May-21 05:31N 29°57' W 090°01'0 0.0
2016-May-21 04:31N 29°57' W 090°01'0 0.0
2016-May-21 03:31N 29°57' W 090°01'1 0.7
2016-May-21 02:33N 29°57' W 090°02'1 0.6
2016-May-21 01:33N 29°58' W 090°02'2 1.9
2016-May-21 00:32N 29°60' W 090°01'2 2.1
2016-May-20 23:33N 29°58' W 090°02'1 0.7
2016-May-20 22:31N 29°57' W 090°01'0 0.0
2016-May-20 21:33N 29°57' W 090°01'5 4.6
2016-May-20 20:33N 29°55' W 090°06'0 0.2
2016-May-20 19:18N 29°55' W 090°05'4 5.2
2016-May-20 18:33N 29°57' W 090°02'2 1.8
2016-May-20 17:34N 29°57' W 089°60'1 0.2
2016-May-20 15:26N 29°56' W 089°60'0 0.0
2016-May-20 14:33N 29°56' W 089°59'0 0.0
2016-May-20 13:32N 29°56' W 089°59'0 0.0
2016-May-20 12:33N 29°56' W 089°59'0 0.5
2016-May-20 11:32N 29°56' W 089°59'2 2.0
2016-May-20 10:32N 29°57' W 090°01'0 0.0
2016-May-20 09:32N 29°57' W 090°01'0 0.0
2016-May-20 08:32N 29°57' W 090°01'0 0.0
2016-May-20 07:32N 29°57' W 090°01'0 0.0
2016-May-20 06:32N 29°57' W 090°01'0 0.0
2016-May-20 05:32N 29°57' W 090°01'2 1.1
2016-May-20 03:34N 29°56' W 089°59'0 0.4
2016-May-20 02:31N 29°56' W 089°59'6 5.2
2016-May-20 01:28N 29°52' W 089°55'6 6.2
2016-May-20 00:33N 29°49' W 090°00'7 1.8
2016-May-19 20:29N 29°42' W 089°59'1111.6
2016-May-19 19:33N 29°52' W 089°59'5 5.0
2016-May-19 18:31N 29°57' W 090°01'0 0.0
2016-May-19 17:31N 29°57' W 090°01'0 0.0
2016-May-19 16:31N 29°57' W 090°01'0 0.0
2016-May-19 15:31N 29°57' W 090°01'4 4.3
2016-May-19 14:34N 29°55' W 089°57'0 0.3
2016-May-19 13:33N 29°55' W 089°56'2 2.3
2016-May-19 12:29N 29°54' W 089°54'0 0.0
2016-May-19 10:20N 29°54' W 089°54'0 0.0
2016-May-19 09:32N 29°54' W 089°54'0 0.0
2016-May-19 08:14N 29°54' W 089°54'0 0.0
2016-May-19 07:32N 29°54' W 089°54'4 4.2
2016-May-19 06:33N 29°52' W 089°58'4 2.0
2016-May-19 04:31N 29°53' W 089°54'5 5.0
2016-May-19 03:34N 29°56' W 089°59'4 4.0
2016-May-19 02:32N 29°56' W 090°03'4 3.7
2016-May-19 01:33N 29°56' W 089°59'5 4.5
2016-May-19 00:33N 29°52' W 089°56'5 4.7
2016-May-18 23:33N 29°49' W 089°60'7 2.2
2016-May-18 20:25N 29°42' W 089°59'1112.1
2016-May-18 19:33N 29°53' W 089°58'5 4.8
2016-May-18 18:32N 29°57' W 090°01'2 2.0
2016-May-18 17:33N 29°56' W 089°59'3 2.8
2016-May-18 16:32N 29°55' W 089°56'2 2.3
2016-May-18 15:33N 29°56' W 089°59'0 0.2
2016-May-18 14:33N 29°56' W 089°59'0 0.4
2016-May-18 13:31N 29°56' W 089°59'2 1.9
2016-May-18 12:31N 29°57' W 090°01'0 0.0
2016-May-18 11:31N 29°57' W 090°01'0 0.0
2016-May-18 10:31N 29°57' W 090°01'0 0.0
2016-May-18 09:31N 29°57' W 090°01'0 0.0
2016-May-18 08:31N 29°57' W 090°01'0 0.0
2016-May-18 07:28N 29°57' W 090°01'0 0.0
2016-May-18 06:31N 29°57' W 090°01'0 0.0
2016-May-18 05:31N 29°57' W 090°01'0 0.0
2016-May-18 04:31N 29°57' W 090°01'0 0.0
2016-May-18 03:31N 29°57' W 090°01'0 0.0
2016-May-18 02:31N 29°57' W 090°01'0 0.0
2016-May-18 01:31N 29°57' W 090°01'0 0.0
2016-May-18 00:31N 29°57' W 090°01'0 0.0
2016-May-17 23:31N 29°57' W 090°01'0 0.0
2016-May-17 22:31N 29°57' W 090°01'0 0.0
2016-May-17 21:31N 29°57' W 090°01'0 0.0
2016-May-17 20:31N 29°57' W 090°01'0 0.0
2016-May-17 19:31N 29°57' W 090°01'0 0.0
2016-May-17 18:28N 29°57' W 090°01'0 0.0
2016-May-17 17:31N 29°57' W 090°01'0 0.0
2016-May-17 16:31N 29°57' W 090°01'0 0.0
2016-May-17 15:31N 29°57' W 090°01'0 0.0
2016-May-17 14:31N 29°57' W 090°01'0 0.0
2016-May-17 13:31N 29°57' W 090°01'0 0.0
2016-May-17 12:31N 29°57' W 090°01'0 0.0
2016-May-17 11:31N 29°57' W 090°01'0 0.0
2016-May-17 10:31N 29°57' W 090°01'0 0.0
2016-May-17 09:31N 29°57' W 090°01'0 0.0
2016-May-17 08:31N 29°57' W 090°01'  

Dump ship's entire track history